Time;durP1;ratioP1;P1;durP2;ratioP2;P2;SDS_P1;SDS_P2;PMS_P1;PMS_P2;Temp;Humidity;BMP_temperature;BMP_pressure;BME280_temperature;BME280_humidity;BME280_pressure;Samples;Min_cycle;Max_cycle;Signal;HPM_P1;HPM_P2
2024/03/16 00:01:38;;;;;;;1.63;1.60;;;;;;;14.41;60.87;98574.41;6690278;29;20306;-85
2024/03/16 00:05:00;;;;;;;1.70;1.60;;;;;;;14.53;59.41;98521.81;6690492;29;20589;-86
2024/03/16 00:08:22;;;;;;;1.93;1.40;;;;;;;15.22;57.84;98564.31;6690935;29;20401;-87
2024/03/16 00:11:43;;;;;;;1.63;1.53;;;;;;;15.40;58.25;98607.63;6690873;29;20268;-85
2024/03/16 00:15:05;;;;;;;1.67;1.60;;;;;;;15.20;57.89;98605.28;6689281;29;20245;-86
2024/03/16 00:18:27;;;;;;;2.03;1.53;;;;;;;15.09;57.93;98602.56;6674911;29;20275;-86
2024/03/16 00:21:49;;;;;;;1.97;1.63;;;;;;;15.52;56.84;98608.41;6690072;29;20246;-86
2024/03/16 00:25:11;;;;;;;1.73;1.50;;;;;;;15.40;57.39;98627.44;6672384;29;20207;-86
2024/03/16 00:28:33;;;;;;;2.57;1.60;;;;;;;15.21;57.14;98579.75;6664479;29;20798;-86
2024/03/16 00:31:55;;;;;;;1.60;1.50;;;;;;;15.23;57.82;98621.06;6678918;29;20209;-86
2024/03/16 00:35:17;;;;;;;3.07;1.40;;;;;;;14.69;57.01;98520.25;6674983;29;20245;-86
2024/03/16 00:38:38;;;;;;;1.70;1.40;;;;;;;14.86;58.11;98576.28;6674541;29;20318;-86
2024/03/16 00:42:00;;;;;;;1.30;1.20;;;;;;;14.74;58.00;98632.47;6677682;29;20222;-86
2024/03/16 00:45:22;;;;;;;1.40;1.40;;;;;;;14.38;58.61;98578.41;6692789;29;20239;-87
2024/03/16 00:48:44;;;;;;;1.30;1.30;;;;;;;14.36;58.14;98537.16;6674575;29;20234;-87
2024/03/16 00:52:06;;;;;;;1.30;1.20;;;;;;;14.85;58.39;98617.22;6679207;29;20673;-87
2024/03/16 00:55:27;;;;;;;1.10;1.10;;;;;;;14.59;57.80;98615.84;6711702;29;20234;-87
2024/03/16 00:58:49;;;;;;;1.50;1.40;;;;;;;13.46;59.58;98515.03;6709917;29;20235;-87
2024/03/16 01:02:11;;;;;;;1.10;1.10;;;;;;;14.42;58.50;98616.75;6679119;29;20258;-87
2024/03/16 01:05:32;;;;;;;1.63;1.53;;;;;;;14.37;59.05;98630.19;6674470;29;20244;-87
2024/03/16 01:08:54;;;;;;;1.50;1.30;;;;;;;14.17;58.46;98626.94;6663061;29;20362;-87
2024/03/16 01:12:16;;;;;;;1.30;1.20;;;;;;;14.49;58.54;98628.31;6663008;29;20255;-87
2024/03/16 01:15:37;;;;;;;1.70;1.60;;;;;;;14.08;57.54;98514.44;6663348;29;20332;-87
2024/03/16 01:18:59;;;;;;;1.50;1.40;;;;;;;14.64;56.97;98599.66;6677920;29;20256;-87
2024/03/16 01:22:21;;;;;;;1.10;1.10;;;;;;;14.73;57.27;98610.97;6673055;29;20304;-87
2024/03/16 01:25:43;;;;;;;1.40;1.30;;;;;;;14.55;57.27;98616.50;6673362;29;20215;-87
2024/03/16 01:29:09;;;;;;;3.30;1.33;;;;;;;13.96;57.61;98554.25;6671951;29;20919;-86
2024/03/16 01:32:31;;;;;;;1.20;1.20;;;;;;;13.56;58.27;98483.59;6688810;29;20232;-87
2024/03/16 01:35:53;;;;;;;1.90;1.30;;;;;;;14.45;57.72;98627.13;6697608;29;20254;-87
2024/03/16 01:39:15;;;;;;;1.33;1.33;;;;;;;14.15;56.14;98480.75;6699539;29;20230;-87
2024/03/16 01:42:37;;;;;;;1.37;1.27;;;;;;;14.28;56.40;98531.25;6666846;29;20416;-88
2024/03/16 01:45:58;;;;;;;1.50;1.40;;;;;;;14.72;56.59;98620.19;6651404;29;20261;-87
2024/03/16 01:49:21;;;;;;;1.60;1.40;;;;;;;14.42;57.49;98624.88;6671160;29;20368;-87
2024/03/16 01:52:43;;;;;;;1.10;1.10;;;;;;;13.81;57.83;98540.34;6681190;29;20216;-88
2024/03/16 01:56:05;;;;;;;1.10;1.10;;;;;;;14.07;57.10;98534.47;6695266;29;20282;-87
2024/03/16 01:59:26;;;;;;;1.10;1.10;;;;;;;14.29;57.19;98568.97;6678043;29;20312;-88
2024/03/16 02:02:48;;;;;;;1.00;1.00;;;;;;;13.93;57.73;98552.03;6693895;29;20321;-88
2024/03/16 02:06:10;;;;;;;2.30;1.57;;;;;;;14.39;57.89;98603.66;6693673;29;20207;-88
2024/03/16 02:09:32;;;;;;;1.20;1.10;;;;;;;14.64;56.76;98602.34;6693083;29;20260;-88
2024/03/16 02:12:53;;;;;;;1.30;1.20;;;;;;;14.10;57.44;98553.00;6677745;29;20213;-88
2024/03/16 02:16:15;;;;;;;1.27;1.27;;;;;;;14.31;57.48;98585.00;6677484;29;20268;-88
2024/03/16 02:19:37;;;;;;;1.40;1.30;;;;;;;14.70;56.23;98568.03;6676737;29;20257;-88
2024/03/16 02:22:58;;;;;;;1.33;1.20;;;;;;;14.22;57.67;98594.56;6676998;29;20250;-88
2024/03/16 02:26:20;;;;;;;1.33;1.20;;;;;;;13.63;57.25;98457.22;6677329;29;20701;-88
2024/03/16 02:29:42;;;;;;;1.30;1.20;;;;;;;14.00;56.54;98466.00;6677103;29;20261;-87
2024/03/16 02:33:06;;;;;;;1.57;1.30;;;;;;;13.75;57.21;98474.34;6676325;29;20206;-88
2024/03/16 02:36:28;;;;;;;1.30;1.20;;;;;;;14.20;57.12;98569.53;6677402;29;20242;-87
2024/03/16 02:39:50;;;;;;;1.10;1.10;;;;;;;13.87;57.10;98488.72;6676316;29;20245;-88
2024/03/16 02:43:14;;;;;;;1.47;1.40;;;;;;;14.40;57.51;98602.59;6677292;29;20222;-88
2024/03/16 02:46:36;;;;;;;1.40;1.30;;;;;;;13.79;57.66;98504.50;6677763;29;20233;-88
2024/03/16 02:49:58;;;;;;;2.70;1.50;;;;;;;13.42;57.98;98470.50;6676458;29;20327;-88
2024/03/16 02:53:19;;;;;;;1.50;1.30;;;;;;;14.41;56.84;98537.28;6676504;29;20638;-87
2024/03/16 02:56:41;;;;;;;1.40;1.30;;;;;;;13.66;57.64;98486.59;6676285;29;20786;-88
2024/03/16 03:00:07;;;;;;;1.83;1.30;;;;;;;14.19;56.52;98533.47;6676340;29;20245;-88
2024/03/16 03:03:29;;;;;;;1.20;1.20;;;;;;;13.89;57.24;98504.75;6666654;29;20335;-87
2024/03/16 03:06:51;;;;;;;1.63;1.37;;;;;;;14.91;55.73;98597.28;6666354;29;20286;-88
2024/03/16 03:10:13;;;;;;;1.50;1.40;;;;;;;14.06;55.87;98455.06;6665503;29;20694;-87
2024/03/16 03:13:34;;;;;;;2.00;1.30;;;;;;;13.70;56.58;98449.81;6666378;29;20706;-88
2024/03/16 03:16:56;;;;;;;1.40;1.30;;;;;;;14.01;56.69;98478.50;6665817;29;20730;-88
2024/03/16 03:20:20;;;;;;;1.50;1.33;;;;;;;13.99;56.12;98477.91;6665445;29;20598;-88
2024/03/16 03:23:42;;;;;;;1.57;1.10;;;;;;;14.82;55.82;98593.28;6666005;29;20309;-88
2024/03/16 03:27:04;;;;;;;1.63;1.30;;;;;;;13.98;56.14;98468.13;6665435;29;20242;-88
2024/03/16 03:30:25;;;;;;;1.27;1.27;;;;;;;15.02;55.32;98600.00;6665384;29;20729;-87
2024/03/16 03:33:47;;;;;;;1.87;1.23;;;;;;;14.83;55.81;98601.19;6665754;29;20213;-88
2024/03/16 03:37:09;;;;;;;1.10;1.10;;;;;;;14.64;56.49;98601.56;6665175;29;20380;-87
2024/03/16 03:40:32;;;;;;;1.27;1.20;;;;;;;14.91;55.69;98606.25;6665014;29;20322;-88
2024/03/16 03:43:59;;;;;;;1.40;1.30;;;;;;;14.86;55.93;98614.28;6665496;29;20215;-88
2024/03/16 03:47:30;;;;;;;2.60;1.40;;;;;;;14.85;55.72;98585.50;6666332;29;20201;-88
2024/03/16 03:50:51;;;;;;;1.67;1.30;;;;;;;14.89;55.33;98564.13;6665993;29;20233;-87
2024/03/16 03:54:13;;;;;;;2.10;1.60;;;;;;;14.60;54.83;98489.97;6664830;29;20247;-87
2024/03/16 03:57:35;;;;;;;1.47;1.30;;;;;;;15.42;54.38;98603.59;6664690;29;20769;-88
2024/03/16 04:00:56;;;;;;;1.40;1.30;;;;;;;15.03;54.98;98565.50;6664380;29;20333;-88
2024/03/16 04:04:18;;;;;;;1.67;1.33;;;;;;;15.08;54.14;98547.44;6664704;29;20672;-88
2024/03/16 04:07:41;;;;;;;1.40;1.30;;;;;;;15.66;54.52;98626.94;6664755;29;20696;-87
2024/03/16 04:11:04;;;;;;;2.83;1.30;;;;;;;15.41;54.60;98634.56;6663737;29;20327;-87
2024/03/16 04:14:26;;;;;;;1.20;1.10;;;;;;;15.60;54.54;98646.91;6650091;29;20704;-87
2024/03/16 04:17:48;;;;;;;1.43;1.37;;;;;;;15.58;54.96;98635.44;6664036;29;20234;-87
2024/03/16 04:21:09;;;;;;;1.40;1.20;;;;;;;14.87;55.90;98582.53;6664269;29;20232;-87
2024/03/16 04:24:31;;;;;;;2.17;1.40;;;;;;;15.01;56.77;98658.09;6663829;29;20312;-87
2024/03/16 04:27:53;;;;;;;1.50;1.40;;;;;;;15.42;56.45;98676.97;6669235;29;20204;-87
2024/03/16 04:31:14;;;;;;;3.00;1.53;;;;;;;15.06;57.02;98652.78;6673672;29;20334;-87
2024/03/16 04:34:36;;;;;;;1.30;1.30;;;;;;;15.47;56.70;98684.38;6673276;29;20248;-87
2024/03/16 04:37:58;;;;;;;1.57;1.33;;;;;;;15.56;56.59;98677.50;6673738;29;20295;-87
2024/03/16 04:41:20;;;;;;;2.20;1.50;;;;;;;14.90;56.77;98579.34;6673957;29;20313;-87
2024/03/16 04:44:42;;;;;;;2.20;1.40;;;;;;;14.79;57.06;98580.19;6674213;29;20214;-87
2024/03/16 04:48:04;;;;;;;1.33;1.23;;;;;;;14.81;57.40;98580.78;6673866;29;20270;-87
2024/03/16 04:51:26;;;;;;;3.70;1.83;;;;;;;14.74;57.92;98621.59;6673910;29;20224;-87
2024/03/16 04:54:47;;;;;;;2.43;1.50;;;;;;;14.10;58.78;98544.88;6673916;29;20308;-87
2024/03/16 04:58:09;;;;;;;2.30;1.83;;;;;;;14.89;58.36;98604.84;6673589;29;20291;-87
2024/03/16 05:01:31;;;;;;;1.53;1.43;;;;;;;14.92;58.25;98615.25;6688640;29;20274;-87
2024/03/16 05:04:52;;;;;;;1.53;1.43;;;;;;;14.92;57.39;98588.91;6688310;29;20304;-88
2024/03/16 05:08:14;;;;;;;4.83;1.60;;;;;;;15.08;58.40;98653.34;6691080;29;20216;-87
2024/03/16 05:11:35;;;;;;;1.70;1.40;;;;;;;14.69;60.05;98692.03;6688262;29;20265;-87
2024/03/16 05:14:58;;;;;;;1.60;1.50;;;;;;;15.43;57.80;98672.34;6688744;29;20285;-87
2024/03/16 05:18:20;;;;;;;1.73;1.63;;;;;;;15.22;58.70;98694.66;6688430;29;20604;-88
2024/03/16 05:21:42;;;;;;;1.60;1.50;;;;;;;15.16;57.70;98625.81;6687569;29;20250;-87
2024/03/16 05:25:04;;;;;;;1.50;1.40;;;;;;;14.69;58.31;98609.81;6688492;29;20211;-88
2024/03/16 05:28:26;;;;;;;1.40;1.30;;;;;;;14.77;58.02;98579.59;6688175;29;20248;-88
2024/03/16 05:31:56;;;;;;;1.63;1.50;;;;;;;15.07;59.00;98688.88;6672843;29;20205;-88
2024/03/16 05:35:17;;;;;;;1.70;1.30;;;;;;;14.45;58.46;98595.41;6688050;29;20329;-88
2024/03/16 05:38:39;;;;;;;1.00;1.00;;;;;;;14.14;58.65;98590.25;6688069;29;20681;-88
2024/03/16 05:42:01;;;;;;;1.50;1.47;;;;;;;14.31;57.99;98599.41;6687655;29;20215;-88
2024/03/16 05:45:23;;;;;;;1.87;1.40;;;;;;;14.17;58.09;98562.66;6687336;29;20249;-87
2024/03/16 05:48:44;;;;;;;2.03;1.43;;;;;;;15.33;57.72;98704.75;6689439;29;20263;-84
2024/03/16 05:52:06;;;;;;;1.80;1.57;;;;;;;14.98;58.10;98704.69;6687071;29;20259;-88
2024/03/16 05:55:28;;;;;;;1.33;1.27;;;;;;;15.18;57.81;98698.91;6674081;29;20237;-85
2024/03/16 05:58:50;;;;;;;1.90;1.70;;;;;;;15.36;58.22;98715.13;6674011;29;20238;-87
2024/03/16 06:02:12;;;;;;;1.63;1.53;;;;;;;14.32;59.28;98666.13;6673124;29;20318;-88
2024/03/16 06:05:35;;;;;;;1.70;1.60;;;;;;;15.59;57.19;98734.09;6664743;29;20294;-88
2024/03/16 06:08:57;;;;;;;2.13;1.43;;;;;;;14.96;58.15;98686.97;6677116;29;20237;-87
2024/03/16 06:12:19;;;;;;;3.13;1.63;;;;;;;15.22;57.20;98738.13;6689451;29;20240;-87
2024/03/16 06:15:51;;;;;;;1.40;1.30;;;;;;;15.24;57.83;98730.56;6670450;29;20275;-88
2024/03/16 06:19:14;;;;;;;1.80;1.33;;;;;;;14.49;58.27;98686.09;6688876;29;20730;-86
2024/03/16 06:22:36;;;;;;;1.43;1.37;;;;;;;14.74;57.22;98645.22;6691042;29;20297;-85
2024/03/16 06:26:03;;;;;;;1.73;1.40;;;;;;;15.49;57.20;98739.31;6689100;29;20350;-86
2024/03/16 06:29:26;;;;;;;2.33;1.70;;;;;;;15.78;55.91;98754.63;6692066;29;20241;-84
2024/03/16 06:33:05;;;;;;;2.17;1.70;;;;;;;15.63;56.15;98732.56;6688718;29;20281;-87
2024/03/16 06:36:29;;;;;;;1.77;1.67;;;;;;;16.07;56.31;98784.38;6677992;29;20292;-90
2024/03/16 06:39:51;;;;;;;1.90;1.80;;;;;;;15.67;55.55;98674.78;6705879;29;20689;-89
2024/03/16 06:43:16;;;;;;;1.70;1.40;;;;;;;15.35;55.73;98675.44;6698970;29;20238;-87
2024/03/16 06:46:49;;;;;;;1.87;1.60;;;;;;;16.24;56.43;98781.72;6683386;29;20647;-87
2024/03/16 06:50:11;;;;;;;2.07;1.60;;;;;;;15.53;56.50;98740.50;6668415;29;20709;-85
2024/03/16 06:53:41;;;;;;;2.07;1.43;;;;;;;14.64;56.71;98634.91;6677645;29;20210;-88
2024/03/16 07:09:54;;;;;;;2.73;1.70;;;;;;;15.61;56.37;98669.47;6708076;29;20226;-87
2024/03/16 07:13:16;;;;;;;1.80;1.50;;;;;;;15.87;55.52;98705.06;6694184;29;20226;-85
2024/03/16 07:16:38;;;;;;;3.43;1.60;;;;;;;16.17;54.84;98810.97;6693076;29;20229;-85
2024/03/16 07:19:59;;;;;;;1.73;1.60;;;;;;;15.43;56.69;98730.22;6691035;29;20314;-85
2024/03/16 07:23:21;;;;;;;1.50;1.40;;;;;;;16.15;55.46;98823.97;6691273;29;20745;-87
2024/03/16 07:26:43;;;;;;;1.30;1.20;;;;;;;15.14;57.06;98705.88;6691528;29;20209;-86
2024/03/16 07:30:06;;;;;;;1.30;1.30;;;;;;;16.34;55.45;98828.19;6691320;29;20766;-85
2024/03/16 07:33:27;;;;;;;1.50;1.40;;;;;;;15.63;57.13;98838.56;6690388;29;20362;-86
2024/03/16 07:36:49;;;;;;;1.50;1.40;;;;;;;15.99;57.69;98830.16;6692031;29;20306;-85
2024/03/16 07:40:13;;;;;;;2.40;1.43;;;;;;;16.29;57.18;98844.41;6691343;29;20245;-84
2024/03/16 07:43:34;;;;;;;2.30;1.80;;;;;;;15.80;58.54;98855.84;6692836;29;20219;-84
2024/03/16 07:46:56;;;;;;;3.20;1.50;;;;;;;15.54;59.40;98865.28;6696377;29;20277;-84
2024/03/16 07:50:18;;;;;;;3.63;1.80;;;;;;;15.87;59.93;98864.69;6695530;29;20338;-85
2024/03/16 07:53:39;;;;;;;3.30;2.00;;;;;;;15.64;58.62;98772.28;6691347;29;20219;-83
2024/03/16 07:57:06;;;;;;;2.77;1.97;;;;;;;15.96;58.46;98806.97;6680148;29;20365;-87
2024/03/16 08:00:27;;;;;;;2.33;1.90;;;;;;;16.14;58.28;98822.31;6665584;29;20243;-84
2024/03/16 08:03:49;;;;;;;2.67;1.73;;;;;;;16.10;56.04;98802.91;6690082;29;20371;-84
2024/03/16 08:07:11;;;;;;;3.33;1.93;;;;;;;16.19;58.11;98858.63;6690566;29;20268;-84
2024/03/16 08:10:33;;;;;;;1.87;1.57;;;;;;;15.94;58.88;98870.81;6688915;29;20303;-81
2024/03/16 08:13:55;;;;;;;3.10;1.77;;;;;;;15.46;59.61;98807.72;6689538;29;20254;-82
2024/03/16 08:17:17;;;;;;;2.83;1.70;;;;;;;15.82;57.88;98837.38;6689193;29;20238;-86
2024/03/16 08:20:39;;;;;;;3.17;1.60;;;;;;;15.96;58.81;98879.56;6688519;29;20327;-81
2024/03/16 08:24:01;;;;;;;4.00;1.90;;;;;;;15.80;60.84;98888.47;6689348;29;20302;-84
2024/03/16 08:27:23;;;;;;;2.63;1.70;;;;;;;15.79;60.11;98893.06;6703407;29;20278;-82
2024/03/16 08:30:45;;;;;;;3.17;1.73;;;;;;;15.72;59.51;98892.34;6670935;29;20278;-81
2024/03/16 08:34:09;;;;;;;2.40;1.47;;;;;;;15.67;59.68;98908.53;6673861;29;20254;-83
2024/03/16 08:37:30;;;;;;;1.77;1.60;;;;;;;15.11;59.81;98766.09;6674784;29;20245;-85
2024/03/16 08:40:52;;;;;;;1.73;1.40;;;;;;;15.93;59.07;98894.47;6673273;29;20432;-84
2024/03/16 08:44:14;;;;;;;1.50;1.40;;;;;;;16.15;58.56;98900.16;6674079;29;20226;-81
2024/03/16 08:47:35;;;;;;;1.40;1.30;;;;;;;15.84;59.62;98882.31;6674657;29;20265;-80
2024/03/16 08:50:59;;;;;;;2.17;1.33;;;;;;;16.16;58.73;98882.75;6675342;29;20314;-81
2024/03/16 08:54:20;;;;;;;2.80;1.50;;;;;;;16.27;58.65;98899.06;6680240;29;20306;-83
2024/03/16 08:57:53;;;;;;;1.40;1.30;;;;;;;16.21;57.43;98875.53;6664118;29;20319;-83
2024/03/16 09:01:14;;;;;;;1.50;1.40;;;;;;;16.36;57.33;98875.84;6667198;29;20235;-81
2024/03/16 09:04:36;;;;;;;1.53;1.43;;;;;;;16.13;57.51;98915.88;6649840;29;20306;-81
2024/03/16 09:07:57;;;;;;;2.27;1.63;;;;;;;16.25;57.59;98925.69;6649767;29;20351;-84
2024/03/16 09:11:19;;;;;;;1.80;1.53;;;;;;;16.34;57.64;98913.34;6648721;29;20320;-84
2024/03/16 09:14:41;;;;;;;1.80;1.70;;;;;;;16.45;57.96;98936.22;6666918;29;20754;-83
2024/03/16 09:18:03;;;;;;;1.43;1.33;;;;;;;16.62;56.67;98894.38;6674025;29;20288;-83
2024/03/16 09:21:25;;;;;;;3.27;1.63;;;;;;;16.82;56.32;98924.72;6666032;29;20208;-83
2024/03/16 09:24:47;;;;;;;2.20;1.63;;;;;;;17.05;55.90;98943.72;6663431;29;20301;-84
2024/03/16 09:28:11;;;;;;;1.63;1.50;;;;;;;17.09;55.00;98933.16;6671701;29;20212;-83
2024/03/16 09:31:33;;;;;;;1.90;1.80;;;;;;;17.12;55.86;98930.81;6685858;29;20212;-82
2024/03/16 09:34:55;;;;;;;1.70;1.60;;;;;;;17.20;55.06;98944.03;6680081;29;20231;-85
2024/03/16 09:38:16;;;;;;;4.00;1.70;;;;;;;16.91;54.98;98936.91;6692523;29;20704;-85
2024/03/16 09:41:39;;;;;;;2.37;1.57;;;;;;;16.93;55.04;98959.28;6690445;29;20279;-83
2024/03/16 09:45:06;;;;;;;1.93;1.50;;;;;;;16.59;56.53;98953.94;6689319;29;20218;-85
2024/03/16 09:48:27;;;;;;;1.50;1.40;;;;;;;17.32;53.85;98958.41;6689773;29;20231;-85
2024/03/16 09:51:49;;;;;;;1.50;1.40;;;;;;;16.81;54.02;98931.25;6688756;29;20236;-86
2024/03/16 09:55:11;;;;;;;1.87;1.60;;;;;;;16.06;54.56;98825.41;6688386;29;20302;-88
2024/03/16 09:58:33;;;;;;;1.87;1.77;;;;;;;16.78;54.54;98956.25;6693390;29;20245;-87
2024/03/16 10:01:55;;;;;;;1.67;1.57;;;;;;;17.16;53.14;98959.19;6681252;29;20253;-86
2024/03/16 10:05:17;;;;;;;3.17;2.00;;;;;;;16.56;51.83;98824.59;6663454;29;20221;-87
2024/03/16 10:08:39;;;;;;;2.67;1.60;;;;;;;16.95;52.93;98889.06;6665943;29;20726;-87
2024/03/16 10:12:09;;;;;;;1.80;1.60;;;;;;;17.38;51.10;98902.97;6669526;29;20310;-87
2024/03/16 10:15:31;;;;;;;1.70;1.30;;;;;;;17.48;51.18;98883.22;6667312;29;20301;-87
2024/03/16 10:18:53;;;;;;;1.60;1.50;;;;;;;17.69;50.67;98962.38;6666957;29;20388;-86
2024/03/16 10:22:15;;;;;;;1.33;1.23;;;;;;;17.59;51.40;98961.41;6683306;29;20243;-87
2024/03/16 10:25:37;;;;;;;2.33;1.50;;;;;;;17.53;50.82;98954.19;6674829;29;20344;-87
2024/03/16 10:28:59;;;;;;;1.63;1.33;;;;;;;18.07;50.27;98948.84;6693291;29;20787;-87
2024/03/16 10:32:21;;;;;;;2.67;1.70;;;;;;;17.37;51.67;98969.44;6694670;29;20216;-87
2024/03/16 10:35:43;;;;;;;1.77;1.40;;;;;;;17.28;51.66;98972.78;6678180;29;20220;-87
2024/03/16 10:39:05;;;;;;;1.60;1.30;;;;;;;16.92;52.66;98978.63;6676530;29;20283;-82
2024/03/16 10:42:26;;;;;;;1.50;1.40;;;;;;;17.43;52.07;98984.84;6677943;29;20226;-84
2024/03/16 10:45:48;;;;;;;1.50;1.40;;;;;;;18.02;51.16;98988.84;6693880;29;20224;-83
2024/03/16 10:49:11;;;;;;;1.73;1.40;;;;;;;18.10;49.72;98975.63;6693718;29;20265;-87
2024/03/16 10:52:34;;;;;;;5.47;3.20;;;;;;;18.33;49.26;98980.13;6695099;29;20236;-81
2024/03/16 10:55:56;;;;;;;2.07;1.83;;;;;;;18.24;49.85;98976.97;6699770;29;20216;-82
2024/03/16 10:59:31;;;;;;;8.87;8.07;;;;;;;18.47;49.02;98976.78;6676109;29;20753;-83
2024/03/16 11:03:00;;;;;;;13.30;6.07;;;;;;;18.29;48.71;98987.94;6684312;29;20212;-84
2024/03/16 11:06:23;;;;;;;1.33;1.20;;;;;;;18.39;48.82;98999.03;6692671;29;20635;-85
2024/03/16 11:09:44;;;;;;;1.20;1.20;;;;;;;18.38;48.38;98993.81;6691784;29;20284;-81
2024/03/16 11:13:16;;;;;;;1.00;1.00;;;;;;;18.30;48.28;98997.78;6693238;29;20308;-84
2024/03/16 11:16:39;;;;;;;1.37;1.27;;;;;;;18.52;48.68;99006.06;6692756;29;20591;-84
2024/03/16 11:20:40;;;;;;;1.30;1.20;;;;;;;19.07;47.36;98984.94;6691145;29;20237;-81
2024/03/16 11:24:03;;;;;;;0.90;0.90;;;;;;;18.74;47.61;98977.69;6689692;29;20209;-83
2024/03/16 11:27:25;;;;;;;0.80;0.80;;;;;;;18.95;47.30;98976.06;6676809;29;20352;-81
2024/03/16 11:30:47;;;;;;;2.17;1.20;;;;;;;18.51;47.03;98990.75;6671314;29;20316;-85
2024/03/16 11:34:13;;;;;;;0.90;0.90;;;;;;;18.44;47.21;98919.09;6678896;29;20202;-85
2024/03/16 11:37:35;;;;;;;0.80;0.80;;;;;;;18.20;47.44;98996.78;6666235;29;20225;-85
2024/03/16 11:40:56;;;;;;;1.43;1.33;;;;;;;18.29;46.35;98913.41;6665414;29;20241;-85
2024/03/16 11:44:19;;;;;;;1.00;1.00;;;;;;;18.52;45.66;98998.69;6665606;29;20367;-85
2024/03/16 11:47:39;;;;;;;1.23;1.10;;;;;;;18.34;46.83;98987.22;6665772;29;20225;-85
2024/03/16 11:51:01;;;;;;;0.87;0.87;;;;;;;18.64;46.27;98961.16;6665727;29;20325;-85
2024/03/16 11:54:23;;;;;;;1.30;1.20;;;;;;;18.78;45.26;98967.09;6681134;29;20218;-86
2024/03/16 11:57:45;;;;;;;1.00;1.00;;;;;;;18.87;46.63;98987.44;6676746;29;20294;-85
2024/03/16 12:01:08;;;;;;;1.13;1.03;;;;;;;18.08;45.57;98920.47;6675590;29;20652;-84
2024/03/16 12:04:30;;;;;;;1.67;0.90;;;;;;;17.59;45.81;98923.22;6676356;29;20220;-85
2024/03/16 12:07:51;;;;;;;1.90;1.20;;;;;;;18.11;45.83;99001.84;6678404;29;20248;-85
2024/03/16 12:11:12;;;;;;;1.00;1.00;;;;;;;18.17;46.74;99014.47;6675055;29;20324;-85
2024/03/16 12:14:34;;;;;;;0.90;0.90;;;;;;;18.38;46.81;98978.28;6675682;29;20255;-85
2024/03/16 12:17:56;;;;;;;1.37;1.10;;;;;;;18.94;45.37;98997.09;6675108;29;20233;-85
2024/03/16 12:21:18;;;;;;;1.13;0.90;;;;;;;18.75;45.17;99008.59;6674881;29;20330;-85
2024/03/16 12:24:40;;;;;;;1.17;1.17;;;;;;;18.43;46.25;99008.41;6669851;29;20301;-79
2024/03/16 12:28:05;;;;;;;0.97;0.97;;;;;;;18.75;45.43;98973.06;6673018;29;20297;-82
2024/03/16 12:31:27;;;;;;;1.20;1.20;;;;;;;19.36;44.94;98994.63;6668198;29;20214;-82
2024/03/16 12:34:49;;;;;;;3.00;1.20;;;;;;;19.15;44.48;98995.41;6686044;29;20296;-82
2024/03/16 12:38:11;;;;;;;1.13;1.10;;;;;;;19.11;45.02;99000.56;6664783;29;20242;-82
2024/03/16 12:41:32;;;;;;;1.10;1.10;;;;;;;19.00;44.55;98967.91;6649763;29;20696;-87
2024/03/16 12:44:54;;;;;;;0.90;0.90;;;;;;;19.23;44.56;99008.69;6665210;29;20632;-83
2024/03/16 12:48:16;;;;;;;1.30;1.23;;;;;;;19.76;43.92;99011.47;6678629;29;20860;-83
2024/03/16 12:51:37;;;;;;;1.27;1.27;;;;;;;19.21;44.03;99019.06;6667218;29;20256;-84
2024/03/16 12:55:00;;;;;;;1.00;1.00;;;;;;;18.58;45.88;99014.06;6666014;29;20217;-83
2024/03/16 12:58:22;;;;;;;0.80;0.80;;;;;;;18.97;44.95;99002.03;6704285;29;20725;-83
2024/03/16 13:01:43;;;;;;;0.90;0.90;;;;;;;19.10;44.15;98998.91;6704173;29;20303;-84
2024/03/16 13:05:07;;;;;;;1.00;1.00;;;;;;;19.11;43.79;99005.22;6693896;29;20266;-83
2024/03/16 13:08:29;;;;;;;2.10;1.00;;;;;;;18.66;44.64;99013.66;6678241;29;20265;-84
2024/03/16 13:11:51;;;;;;;0.90;0.90;;;;;;;19.58;43.52;98993.47;6677987;29;20312;-84
2024/03/16 13:15:13;;;;;;;1.10;1.00;;;;;;;19.81;42.97;99012.31;6679306;29;20359;-83
2024/03/16 13:18:36;;;;;;;1.07;1.07;;;;;;;19.95;42.06;98999.03;6679260;29;20252;-84
2024/03/16 13:21:59;;;;;;;0.87;0.87;;;;;;;19.23;43.29;99004.03;6677985;29;20214;-84
2024/03/16 13:25:21;;;;;;;0.80;0.80;;;;;;;19.35;43.33;99001.97;6678200;29;20217;-83
2024/03/16 13:28:42;;;;;;;1.10;1.10;;;;;;;19.66;42.32;99017.66;6682449;29;20313;-84
2024/03/16 13:32:05;;;;;;;1.43;1.10;;;;;;;19.47;42.30;98938.94;6678669;29;20290;-84
2024/03/16 13:35:27;;;;;;;1.13;1.03;;;;;;;19.49;42.85;99013.34;6685138;29;20218;-84
2024/03/16 13:38:48;;;;;;;1.30;1.20;;;;;;;19.54;43.04;99010.66;6679531;29;20256;-83
2024/03/16 13:42:12;;;;;;;1.67;1.33;;;;;;;19.57;43.00;99007.44;6678607;29;20270;-84
2024/03/16 13:45:35;;;;;;;1.50;1.40;;;;;;;18.64;44.33;98971.28;6683834;29;20221;-84
2024/03/16 13:48:59;;;;;;;1.60;1.50;;;;;;;18.90;44.42;99006.03;6689732;29;20716;-81
2024/03/16 13:52:21;;;;;;;1.40;1.30;;;;;;;18.96;43.71;98996.81;6677289;29;20297;-84
2024/03/16 13:55:42;;;;;;;1.30;1.30;;;;;;;18.73;44.72;98997.06;6667069;29;20255;-85
2024/03/16 13:59:04;;;;;;;3.47;1.70;;;;;;;18.96;44.29;98977.69;6687226;29;20754;-85
2024/03/16 14:02:26;;;;;;;1.40;1.30;;;;;;;19.41;43.54;99005.63;6692600;29;20345;-85
2024/03/16 14:05:48;;;;;;;1.67;1.57;;;;;;;18.80;43.36;98853.75;6677880;29;20244;-85
2024/03/16 14:09:09;;;;;;;1.60;1.50;;;;;;;19.70;42.91;98961.31;6676329;29;20266;-86
2024/03/16 14:12:31;;;;;;;1.50;1.40;;;;;;;19.30;43.10;99009.31;6677549;29;20688;-85
2024/03/16 14:15:53;;;;;;;1.40;1.30;;;;;;;18.68;44.45;98994.25;6678583;29;20217;-84
2024/03/16 14:19:15;;;;;;;2.03;1.60;;;;;;;18.72;44.07;98998.16;6676633;29;20260;-84
2024/03/16 14:22:36;;;;;;;1.60;1.50;;;;;;;18.91;43.30;98977.63;6677171;29;20289;-84
2024/03/16 14:25:57;;;;;;;1.50;1.40;;;;;;;19.65;41.59;99002.31;6677380;29;20213;-83
2024/03/16 14:29:19;;;;;;;1.10;1.10;;;;;;;18.96;42.22;99010.50;6676173;29;20328;-83
2024/03/16 14:32:44;;;;;;;1.20;1.20;;;;;;;19.17;41.89;99017.88;6676859;29;20224;-84
2024/03/16 14:36:07;;;;;;;1.57;1.47;;;;;;;19.27;42.59;99009.84;6664651;29;20206;-84
2024/03/16 14:39:28;;;;;;;1.50;1.40;;;;;;;19.34;42.33;99007.72;6651128;29;20252;-83
2024/03/16 14:42:50;;;;;;;1.63;1.53;;;;;;;19.73;42.16;98985.44;6650861;29;20281;-82
2024/03/16 14:46:12;;;;;;;1.37;1.33;;;;;;;19.89;41.65;99011.03;6651148;29;20217;-84
2024/03/16 14:49:33;;;;;;;1.50;1.40;;;;;;;19.42;40.73;99026.41;6651296;29;20370;-84
2024/03/16 14:52:59;;;;;;;0.97;0.97;;;;;;;19.36;39.87;99011.84;6668523;29;20210;-85
2024/03/16 14:56:21;;;;;;;1.20;1.20;;;;;;;19.28;40.37;99023.22;6676843;29;20304;-83
2024/03/16 14:59:41;;;;;;;1.00;1.00;;;;;;;19.06;40.55;99025.13;6691203;29;20328;-84
2024/03/16 15:03:03;;;;;;;1.27;1.23;;;;;;;19.57;40.15;99029.31;6683456;29;20323;-83
2024/03/16 15:06:25;;;;;;;1.20;1.17;;;;;;;18.45;41.22;98968.00;6672796;29;20692;-84
2024/03/16 15:09:46;;;;;;;1.03;1.03;;;;;;;18.57;41.83;99052.56;6682353;29;20733;-84
2024/03/16 15:13:08;;;;;;;1.10;1.10;;;;;;;18.53;42.12;99073.25;6666678;29;20358;-85
2024/03/16 15:16:29;;;;;;;1.10;1.10;;;;;;;18.09;43.49;99065.91;6666963;29;20241;-85
2024/03/16 15:19:50;;;;;;;1.13;1.13;;;;;;;18.02;43.22;98999.78;6665191;29;20289;-85
2024/03/16 15:23:11;;;;;;;1.73;1.40;;;;;;;17.94;44.96;99090.22;6665891;29;20358;-85
2024/03/16 15:26:36;;;;;;;1.10;1.10;;;;;;;17.36;48.23;99084.13;6666070;29;20214;-84
2024/03/16 15:29:56;;;;;;;1.63;1.53;;;;;;;17.09;52.78;99123.88;6669148;29;20230;-85
2024/03/16 15:33:18;;;;;;;1.40;1.30;;;;;;;17.21;52.91;99130.16;6674959;29;20244;-85
2024/03/16 15:36:40;;;;;;;1.67;1.57;;;;;;;17.00;55.60;99145.22;6672338;29;20217;-84
2024/03/16 15:40:02;;;;;;;1.67;1.57;;;;;;;17.20;56.78;99142.09;6670897;29;20390;-82
2024/03/16 15:43:24;;;;;;;2.37;1.50;;;;;;;16.80;56.67;99141.22;6673246;29;20224;-86
2024/03/16 15:46:46;;;;;;;2.17;1.80;;;;;;;15.92;58.27;99142.19;6672834;29;20266;-84
2024/03/16 15:50:08;;;;;;;1.47;1.37;;;;;;;15.99;56.80;99058.59;6674002;29;20292;-84
2024/03/16 15:53:30;;;;;;;1.40;1.40;;;;;;;16.72;56.41;99152.44;6674344;29;20297;-83
2024/03/16 15:56:51;;;;;;;1.47;1.40;;;;;;;17.03;55.85;99142.00;6681271;29;20233;-82
2024/03/16 16:00:13;;;;;;;1.67;1.57;;;;;;;16.32;56.70;99122.28;6685341;29;20286;-84
2024/03/16 16:03:34;;;;;;;2.33;1.50;;;;;;;16.03;58.14;99141.38;6683448;29;20296;-79
2024/03/16 16:06:56;;;;;;;1.83;1.70;;;;;;;15.31;60.83;99182.22;6687100;29;20239;-84